createdAt,value
2023-02-19T00:00:29.912Z,32.45
2023-02-19T00:00:59.927Z,32.43
2023-02-19T00:01:30.081Z,32.42
2023-02-19T00:01:59.951Z,32.44
2023-02-19T00:02:29.978Z,32.46
2023-02-19T00:02:59.991Z,32.49
2023-02-19T00:03:30.143Z,32.54
2023-02-19T00:04:00.032Z,32.43
2023-02-19T00:04:30.048Z,32.51
2023-02-19T00:05:00.123Z,32.44
2023-02-19T00:05:30.142Z,32.51
2023-02-19T00:06:00.238Z,32.51
2023-02-19T00:06:30.350Z,32.51
2023-02-19T00:07:38.640Z,32.52
2023-02-19T00:08:08.700Z,32.59
2023-02-19T00:08:38.798Z,32.55
2023-02-19T00:09:08.870Z,32.54
2023-02-19T00:09:38.939Z,32.54
2023-02-19T00:10:09.019Z,32.52
2023-02-19T00:10:39.085Z,32.51
2023-02-19T00:11:09.588Z,32.48
2023-02-19T00:11:39.233Z,32.46
2023-02-19T00:12:09.268Z,32.52
2023-02-19T00:12:39.347Z,32.51
2023-02-19T00:13:09.432Z,32.56
2023-02-19T00:13:39.497Z,32.54
2023-02-19T00:14:09.593Z,32.51
2023-02-19T00:14:39.648Z,32.52
2023-02-19T00:15:09.719Z,32.56
2023-02-19T00:15:39.814Z,32.47
2023-02-19T00:16:09.876Z,32.48
2023-02-19T00:16:39.971Z,32.46
2023-02-19T00:17:10.018Z,32.49
2023-02-19T00:17:40.149Z,32.51
2023-02-19T00:18:10.135Z,32.49
2023-02-19T00:18:40.248Z,32.54
2023-02-19T00:19:10.375Z,32.51
2023-02-19T00:19:40.353Z,32.49
2023-02-19T00:20:10.509Z,32.51
2023-02-19T00:20:40.514Z,32.54
2023-02-19T00:21:10.878Z,32.48
2023-02-19T00:21:40.717Z,32.49
2023-02-19T00:22:10.832Z,32.49
2023-02-19T00:22:40.937Z,32.47
2023-02-19T00:23:11.051Z,32.52
2023-02-19T00:23:41.156Z,32.44
2023-02-19T00:24:11.277Z,32.49
2023-02-19T00:24:41.255Z,32.46
2023-02-19T00:25:11.368Z,32.52
2023-02-19T00:25:41.370Z,32.57
2023-02-19T00:26:18.291Z,32.52
2023-02-19T00:26:41.538Z,32.48
2023-02-19T00:27:11.500Z,32.51
2023-02-19T00:27:41.603Z,32.54
2023-02-19T00:28:11.713Z,32.52
2023-02-19T00:28:41.822Z,32.49
2023-02-19T00:29:11.977Z,32.51
2023-02-19T00:29:41.965Z,32.51
2023-02-19T00:30:12.176Z,32.51
2023-02-19T00:30:42.230Z,32.47
2023-02-19T00:31:12.748Z,32.44
2023-02-19T00:31:42.535Z,32.48
2023-02-19T00:32:12.334Z,32.46
2023-02-19T00:32:42.338Z,32.49
2023-02-19T00:33:12.437Z,32.52
2023-02-19T00:33:42.545Z,32.49
2023-02-19T00:34:12.676Z,32.48
2023-02-19T00:34:42.647Z,32.48
2023-02-19T00:35:12.762Z,32.45
2023-02-19T00:35:42.868Z,32.44
2023-02-19T00:36:12.976Z,32.51
2023-02-19T00:36:43.090Z,32.43
2023-02-19T00:37:13.189Z,32.49
2023-02-19T00:37:43.293Z,32.43
2023-02-19T00:38:13.404Z,32.46
2023-02-19T00:38:43.510Z,32.48
2023-02-19T00:39:13.639Z,32.48
2023-02-19T00:39:43.613Z,32.46
2023-02-19T00:40:13.724Z,32.43
2023-02-19T00:40:43.844Z,32.48
2023-02-19T00:41:13.959Z,32.52
2023-02-19T00:41:44.116Z,32.52
2023-02-19T00:42:14.095Z,32.49
2023-02-19T00:42:44.085Z,32.46
2023-02-19T00:43:14.203Z,32.51
2023-02-19T00:43:44.316Z,32.46
2023-02-19T00:44:14.442Z,32.54
2023-02-19T00:44:44.419Z,32.49
2023-02-19T00:45:14.532Z,32.44
2023-02-19T00:45:44.648Z,32.48
2023-02-19T00:46:14.774Z,32.44
2023-02-19T00:46:44.890Z,32.48
2023-02-19T00:47:14.970Z,32.51
2023-02-19T00:47:45.077Z,32.46
2023-02-19T00:48:15.199Z,32.46
2023-02-19T00:48:45.320Z,32.46
2023-02-19T00:49:15.354Z,32.49
2023-02-19T00:49:45.459Z,32.54
2023-02-19T00:50:15.570Z,32.46
2023-02-19T00:50:45.680Z,32.52
2023-02-19T00:51:15.676Z,32.51
2023-02-19T00:51:45.788Z,32.49
2023-02-19T00:52:15.899Z,32.46
2023-02-19T00:52:46.007Z,32.49
2023-02-19T00:53:16.003Z,32.54
2023-02-19T00:53:46.137Z,32.48
2023-02-19T00:54:16.244Z,32.44
2023-02-19T00:54:46.340Z,32.48
2023-02-19T00:55:16.456Z,32.46
2023-02-19T00:55:46.564Z,32.48
2023-02-19T00:56:16.680Z,32.44
2023-02-19T00:56:46.804Z,32.49
2023-02-19T00:57:16.798Z,32.48
2023-02-19T00:57:46.903Z,32.48
2023-02-19T00:58:17.013Z,32.46
2023-02-19T00:58:47.124Z,32.49
2023-02-19T00:59:17.259Z,32.46
2023-02-19T00:59:47.242Z,32.49
2023-02-19T01:00:17.345Z,32.49
2023-02-19T01:00:47.457Z,32.44
2023-02-19T01:01:17.602Z,32.51
2023-02-19T01:01:47.663Z,32.48
2023-02-19T01:02:17.642Z,32.51
2023-02-19T01:02:47.725Z,32.44
2023-02-19T01:03:17.838Z,32.49
2023-02-19T01:03:47.955Z,32.43
2023-02-19T01:04:17.955Z,32.48
2023-02-19T01:04:48.127Z,32.51
2023-02-19T01:05:18.096Z,32.49
2023-02-19T01:05:48.209Z,32.54
2023-02-19T01:06:18.321Z,32.51
2023-02-19T01:06:48.421Z,32.46
2023-02-19T01:07:18.512Z,32.48
2023-02-19T01:07:48.587Z,32.46
2023-02-19T01:08:18.661Z,32.49
2023-02-19T01:08:48.742Z,32.44
2023-02-19T01:09:18.829Z,32.44
2023-02-19T01:09:48.903Z,32.49
2023-02-19T01:10:18.970Z,32.49
2023-02-19T01:10:49.048Z,32.48
2023-02-19T01:11:19.108Z,32.54
2023-02-19T01:11:49.179Z,32.42
2023-02-19T01:12:19.246Z,32.52
2023-02-19T01:12:49.321Z,32.51
2023-02-19T01:13:19.388Z,32.49
2023-02-19T01:13:49.459Z,32.44
2023-02-19T01:14:19.458Z,32.54
2023-02-19T01:14:49.525Z,32.54
2023-02-19T01:15:19.597Z,32.49
2023-02-19T01:15:49.687Z,32.51
2023-02-19T01:16:19.844Z,32.51
2023-02-19T01:16:49.790Z,32.50
2023-02-19T01:17:19.871Z,32.52
2023-02-19T01:17:50.007Z,32.54
2023-02-19T01:18:20.097Z,32.49
2023-02-19T01:18:50.227Z,32.62
2023-02-19T01:19:20.221Z,32.52
2023-02-19T01:19:50.332Z,32.55
2023-02-19T01:20:20.314Z,32.46
2023-02-19T01:20:50.429Z,32.51
2023-02-19T01:21:20.534Z,32.56
2023-02-19T01:21:50.648Z,32.49
2023-02-19T01:22:20.757Z,32.49
2023-02-19T01:22:50.866Z,32.52
2023-02-19T01:23:20.998Z,32.44
2023-02-19T01:23:51.093Z,32.48
2023-02-19T01:24:21.201Z,32.48
2023-02-19T01:24:51.316Z,32.49
2023-02-19T01:25:21.420Z,32.52
2023-02-19T01:25:51.531Z,32.48
2023-02-19T01:26:21.660Z,32.51
2023-02-19T01:26:51.750Z,32.48
2023-02-19T01:27:21.860Z,32.52
2023-02-19T01:27:51.989Z,32.48
2023-02-19T01:28:22.000Z,32.47
2023-02-19T01:28:51.984Z,32.51
2023-02-19T01:29:22.092Z,32.51
2023-02-19T01:29:52.201Z,32.48
2023-02-19T01:30:22.395Z,32.49
2023-02-19T01:30:52.370Z,32.52
2023-02-19T01:31:22.598Z,32.46
2023-02-19T01:31:52.579Z,32.48
2023-02-19T01:32:22.598Z,32.46
2023-02-19T01:32:52.714Z,32.51
2023-02-19T01:33:22.813Z,32.52
2023-02-19T01:33:52.796Z,32.49
2023-02-19T01:34:22.905Z,32.44
2023-02-19T01:34:53.015Z,32.54
2023-02-19T01:35:23.129Z,32.51
2023-02-19T01:35:53.233Z,32.49
2023-02-19T01:36:23.351Z,32.51
2023-02-19T01:36:53.451Z,32.49
2023-02-19T01:37:23.594Z,32.46
2023-02-19T01:37:53.678Z,32.44
2023-02-19T01:38:23.711Z,32.46
2023-02-19T01:38:53.695Z,32.49
2023-02-19T01:39:23.799Z,32.46
2023-02-19T01:39:53.917Z,32.51
2023-02-19T01:40:23.913Z,32.52
2023-02-19T01:40:53.897Z,32.52
2023-02-19T01:41:24.003Z,32.49
2023-02-19T01:41:54.112Z,32.48
2023-02-19T01:42:24.242Z,32.48
2023-02-19T01:42:54.336Z,32.49
2023-02-19T01:43:24.484Z,32.46
2023-02-19T01:43:54.459Z,32.46
2023-02-19T01:44:24.577Z,32.42
2023-02-19T01:44:54.695Z,32.48
2023-02-19T01:45:24.821Z,32.48
2023-02-19T01:45:54.795Z,32.44
2023-02-19T01:46:24.998Z,32.47
2023-02-19T01:46:55.027Z,32.49
2023-02-19T01:47:25.037Z,32.47
2023-02-19T01:47:55.167Z,32.46
2023-02-19T01:48:25.275Z,32.49
2023-02-19T01:48:55.256Z,32.44
2023-02-19T01:49:25.367Z,32.51
2023-02-19T01:49:55.475Z,32.49
2023-02-19T01:50:25.596Z,32.51
2023-02-19T01:50:55.707Z,32.49
2023-02-19T01:51:25.814Z,32.47
2023-02-19T01:51:55.923Z,32.51
2023-02-19T01:52:26.039Z,32.51
2023-02-19T01:52:56.158Z,32.57
2023-02-19T01:53:26.265Z,32.51
2023-02-19T01:53:56.245Z,32.47
2023-02-19T01:54:26.355Z,32.49
2023-02-19T01:54:56.471Z,32.55
2023-02-19T01:55:26.587Z,32.52
2023-02-19T01:55:56.693Z,32.47
2023-02-19T01:56:26.796Z,32.54
2023-02-19T01:56:56.905Z,32.51
2023-02-19T01:57:27.015Z,32.54
2023-02-19T01:57:57.125Z,32.54
2023-02-19T01:58:27.263Z,32.54
2023-02-19T01:58:57.243Z,32.52
2023-02-19T01:59:27.351Z,32.51
2023-02-19T01:59:57.468Z,32.50
2023-02-19T02:00:27.599Z,32.52
2023-02-19T02:00:57.595Z,32.51
2023-02-19T02:01:27.696Z,32.53
2023-02-19T02:01:57.815Z,32.54
2023-02-19T02:02:27.791Z,32.55
2023-02-19T02:02:57.924Z,32.55
2023-02-19T02:03:28.023Z,32.58
2023-02-19T02:03:58.137Z,32.63
2023-02-19T02:04:28.250Z,32.52
2023-02-19T02:04:58.359Z,32.47
2023-02-19T02:05:28.462Z,32.52
2023-02-19T02:05:58.578Z,32.52
2023-02-19T02:06:28.697Z,32.55
2023-02-19T02:06:58.795Z,32.50
2023-02-19T02:07:28.872Z,32.57
2023-02-19T02:07:58.943Z,32.54
2023-02-19T02:08:29.037Z,32.55
2023-02-19T02:08:59.105Z,32.53
2023-02-19T02:09:29.182Z,32.54
2023-02-19T02:09:59.262Z,32.58
2023-02-19T02:10:29.352Z,32.52
2023-02-19T02:10:59.417Z,32.54
2023-02-19T02:11:29.474Z,32.54
2023-02-19T02:11:59.563Z,32.54
2023-02-19T02:12:29.618Z,32.52
2023-02-19T02:12:59.695Z,32.51
2023-02-19T02:13:29.775Z,32.51
2023-02-19T02:13:59.849Z,32.55
2023-02-19T02:14:29.929Z,32.46
2023-02-19T02:15:00.005Z,32.54
2023-02-19T02:15:30.059Z,32.50
2023-02-19T02:16:00.157Z,32.55
2023-02-19T02:16:30.325Z,32.52
2023-02-19T02:17:00.282Z,32.55
2023-02-19T02:17:30.380Z,32.54
2023-02-19T02:18:00.514Z,32.52
2023-02-19T02:18:30.620Z,32.54
2023-02-19T02:19:00.597Z,32.52
2023-02-19T02:19:30.721Z,32.49
2023-02-19T02:20:00.818Z,32.50
2023-02-19T02:20:30.925Z,32.46
2023-02-19T02:21:00.941Z,32.47
2023-02-19T02:21:31.067Z,32.52
2023-02-19T02:22:01.168Z,32.50
2023-02-19T02:22:31.273Z,32.46
2023-02-19T02:23:01.383Z,32.49
2023-02-19T02:23:31.509Z,32.46
2023-02-19T02:24:01.491Z,32.52
2023-02-19T02:24:31.479Z,32.46
2023-02-19T02:25:01.585Z,32.46
2023-02-19T02:25:31.696Z,32.50
2023-02-19T02:26:01.840Z,32.51
2023-02-19T02:26:31.915Z,32.49
2023-02-19T02:27:02.028Z,32.49
2023-02-19T02:27:32.135Z,32.49
2023-02-19T02:28:02.250Z,32.55
2023-02-19T02:28:32.521Z,32.52
2023-02-19T02:29:02.381Z,32.49
2023-02-19T02:29:32.488Z,32.46
2023-02-19T02:30:02.668Z,32.46
2023-02-19T02:30:32.738Z,32.46
2023-02-19T02:31:02.780Z,32.49
2023-02-19T02:31:32.816Z,32.49
2023-02-19T02:32:02.914Z,32.47
2023-02-19T02:32:32.812Z,32.44
2023-02-19T02:33:02.967Z,32.47
2023-02-19T02:33:32.921Z,32.49
2023-02-19T02:34:03.032Z,32.44
2023-02-19T02:34:33.139Z,32.49
2023-02-19T02:35:03.248Z,32.47
2023-02-19T02:35:33.361Z,32.46
2023-02-19T02:36:03.495Z,32.49
2023-02-19T02:36:33.473Z,32.44
2023-02-19T02:37:03.573Z,32.41
2023-02-19T02:37:33.678Z,32.51
2023-02-19T02:38:03.793Z,32.49
2023-02-19T02:38:33.896Z,32.42
2023-02-19T02:39:04.007Z,32.47
2023-02-19T02:39:34.116Z,32.49
2023-02-19T02:40:04.226Z,32.51
2023-02-19T02:40:34.336Z,32.44
2023-02-19T02:41:04.478Z,32.49
2023-02-19T02:41:34.453Z,32.42
2023-02-19T02:42:04.563Z,32.44
2023-02-19T02:42:34.690Z,32.46
2023-02-19T02:43:04.800Z,32.49
2023-02-19T02:43:34.910Z,32.52
2023-02-19T02:44:04.897Z,32.42
2023-02-19T02:44:35.003Z,32.47
2023-02-19T02:45:05.117Z,32.46
2023-02-19T02:45:35.344Z,32.46
2023-02-19T02:46:05.405Z,32.52
2023-02-19T02:46:35.574Z,32.52
2023-02-19T02:47:05.422Z,32.46
2023-02-19T02:47:35.544Z,32.46
2023-02-19T02:48:05.642Z,32.42
2023-02-19T02:48:35.756Z,32.50
2023-02-19T02:49:05.872Z,32.50
2023-02-19T02:49:35.982Z,32.54
2023-02-19T02:50:06.094Z,32.54
2023-02-19T02:50:36.201Z,32.47
2023-02-19T02:51:06.317Z,32.49
2023-02-19T02:51:36.443Z,32.49
2023-02-19T02:52:06.418Z,32.52
2023-02-19T02:52:36.527Z,32.46
2023-02-19T02:53:06.647Z,32.54
2023-02-19T02:53:36.762Z,32.51
2023-02-19T02:54:06.762Z,32.54
2023-02-19T02:54:36.865Z,32.55
2023-02-19T02:55:06.973Z,32.51
2023-02-19T02:55:37.079Z,32.49
2023-02-19T02:56:07.186Z,32.47
2023-02-19T02:56:37.300Z,32.53
2023-02-19T02:57:07.407Z,32.55
2023-02-19T02:57:37.511Z,32.50
2023-02-19T02:58:07.636Z,32.49
2023-02-19T02:58:37.748Z,32.60
2023-02-19T02:59:07.732Z,32.53
2023-02-19T02:59:37.845Z,32.50
2023-02-19T03:00:07.949Z,32.54
2023-02-19T03:00:38.061Z,32.51
2023-02-19T03:01:08.587Z,32.57
2023-02-19T03:01:38.252Z,32.49
2023-02-19T03:02:08.260Z,32.46
2023-02-19T03:02:38.228Z,32.49
2023-02-19T03:03:08.345Z,32.52
2023-02-19T03:03:38.391Z,32.52
2023-02-19T03:04:08.372Z,32.58
2023-02-19T03:04:38.476Z,32.50
2023-02-19T03:05:08.591Z,32.52
2023-02-19T03:05:38.696Z,32.55
2023-02-19T03:06:08.804Z,32.50
2023-02-19T03:06:38.927Z,32.57
2023-02-19T03:07:09.017Z,32.49
2023-02-19T03:07:39.091Z,32.53
2023-02-19T03:08:09.170Z,32.54
2023-02-19T03:08:39.258Z,32.52
2023-02-19T03:09:09.324Z,32.50
2023-02-19T03:09:39.395Z,32.52
2023-02-19T03:10:09.468Z,32.52
2023-02-19T03:10:39.530Z,32.52
2023-02-19T03:11:09.993Z,32.57
2023-02-19T03:11:39.709Z,32.50
2023-02-19T03:12:09.775Z,32.55
2023-02-19T03:12:39.847Z,32.53
2023-02-19T03:13:09.919Z,32.53
2023-02-19T03:13:39.995Z,32.48
2023-02-19T03:14:10.061Z,32.53
2023-02-19T03:14:40.132Z,32.50
2023-02-19T03:15:10.200Z,32.54
2023-02-19T03:15:40.277Z,32.52
2023-02-19T03:16:10.415Z,32.57
2023-02-19T03:16:42.740Z,32.54
2023-02-19T03:17:10.471Z,32.53
2023-02-19T03:17:40.605Z,32.54
2023-02-19T03:18:10.697Z,32.52
2023-02-19T03:18:40.804Z,32.50
2023-02-19T03:19:10.913Z,32.50
2023-02-19T03:19:41.019Z,32.47
2023-02-19T03:20:11.132Z,32.52
2023-02-19T03:20:41.251Z,32.53
2023-02-19T03:21:11.732Z,32.53
2023-02-19T03:21:41.481Z,32.52
2023-02-19T03:22:11.460Z,32.52
2023-02-19T03:22:41.571Z,32.53
2023-02-19T03:23:11.677Z,32.53
2023-02-19T03:23:41.802Z,32.53
2023-02-19T03:24:11.785Z,32.55
2023-02-19T03:24:41.892Z,32.49
2023-02-19T03:25:12.005Z,32.55
2023-02-19T03:25:42.116Z,32.52
2023-02-19T03:26:12.222Z,32.50
2023-02-19T03:26:42.338Z,32.46
2023-02-19T03:27:12.450Z,32.46
2023-02-19T03:27:42.563Z,32.57
2023-02-19T03:28:12.548Z,32.50
2023-02-19T03:28:42.707Z,32.53
2023-02-19T03:29:12.691Z,32.50
2023-02-19T03:29:42.802Z,32.58
2023-02-19T03:30:13.027Z,32.50
2023-02-19T03:30:43.013Z,32.49
2023-02-19T03:31:13.514Z,32.50
2023-02-19T03:31:43.365Z,32.52
2023-02-19T03:32:13.359Z,32.50
2023-02-19T03:32:43.334Z,32.52
2023-02-19T03:33:13.440Z,32.52
2023-02-19T03:33:43.562Z,32.52
2023-02-19T03:34:13.547Z,32.55
2023-02-19T03:34:43.666Z,32.50
2023-02-19T03:35:13.775Z,32.54
2023-02-19T03:35:43.885Z,32.52
2023-02-19T03:36:13.997Z,32.52
2023-02-19T03:36:44.106Z,32.49
2023-02-19T03:37:14.218Z,32.57
2023-02-19T03:37:44.332Z,32.49
2023-02-19T03:38:14.437Z,32.46
2023-02-19T03:38:44.572Z,32.53
2023-02-19T03:39:14.555Z,32.49
2023-02-19T03:39:44.673Z,32.55
2023-02-19T03:40:14.773Z,32.49
2023-02-19T03:40:44.886Z,32.52
2023-02-19T03:41:14.993Z,32.46
2023-02-19T03:41:45.169Z,32.53
2023-02-19T03:42:15.140Z,32.50
2023-02-19T03:42:45.124Z,32.52
2023-02-19T03:43:15.238Z,32.53
2023-02-19T03:43:45.345Z,32.49
2023-02-19T03:44:15.455Z,32.47
2023-02-19T03:44:45.566Z,32.52
2023-02-19T03:45:15.675Z,32.52
2023-02-19T03:45:45.839Z,32.53
2023-02-19T03:46:15.862Z,32.50
2023-02-19T03:46:45.970Z,32.47
2023-02-19T03:47:16.122Z,32.55
2023-02-19T03:47:46.101Z,32.55
2023-02-19T03:48:16.214Z,32.55
2023-02-19T03:48:46.324Z,32.55
2023-02-19T03:49:16.433Z,32.55
2023-02-19T03:49:48.956Z,32.56
2023-02-19T03:50:16.545Z,32.55
2023-02-19T03:50:46.675Z,32.55
2023-02-19T03:51:16.771Z,32.55
2023-02-19T03:51:46.887Z,32.60
2023-02-19T03:52:17.026Z,32.53
2023-02-19T03:52:47.005Z,32.58
2023-02-19T03:53:17.105Z,32.57
2023-02-19T03:53:47.228Z,32.53
2023-02-19T03:54:17.208Z,32.58
2023-02-19T03:54:47.323Z,32.50
2023-02-19T03:55:17.433Z,32.57
2023-02-19T03:55:47.539Z,32.57
2023-02-19T03:56:17.670Z,32.57
2023-02-19T03:56:47.764Z,32.60
2023-02-19T03:57:17.870Z,32.61
2023-02-19T03:57:47.986Z,32.57
2023-02-19T03:58:18.091Z,32.60
2023-02-19T03:58:48.209Z,32.55
2023-02-19T03:59:18.314Z,32.56
2023-02-19T03:59:48.427Z,32.57
2023-02-19T04:00:18.534Z,32.53
2023-02-19T04:00:48.646Z,32.57
2023-02-19T04:01:18.759Z,32.57
2023-02-19T04:01:48.866Z,32.60
2023-02-19T04:02:19.028Z,32.55
2023-02-19T04:02:49.033Z,32.55
2023-02-19T04:03:19.140Z,32.61
2023-02-19T04:03:49.254Z,32.51
2023-02-19T04:04:19.416Z,32.53
2023-02-19T04:04:49.454Z,32.53
2023-02-19T04:05:19.428Z,32.58
2023-02-19T04:05:49.534Z,32.55
2023-02-19T04:06:19.678Z,32.60
2023-02-19T04:06:49.659Z,32.58
2023-02-19T04:07:19.750Z,32.56
2023-02-19T04:07:49.823Z,32.50
2023-02-19T04:08:19.898Z,32.58
2023-02-19T04:08:49.975Z,32.53
2023-02-19T04:09:20.037Z,32.56
2023-02-19T04:09:50.109Z,32.53
2023-02-19T04:10:20.181Z,32.60
2023-02-19T04:10:50.259Z,32.60
2023-02-19T04:11:20.431Z,32.56
2023-02-19T04:11:50.356Z,32.58
2023-02-19T04:12:20.425Z,32.56
2023-02-19T04:12:50.696Z,32.57
2023-02-19T04:13:20.510Z,32.57
2023-02-19T04:13:50.585Z,32.58
2023-02-19T04:14:20.652Z,32.58
2023-02-19T04:14:50.727Z,32.51
2023-02-19T04:15:20.800Z,32.55
2023-02-19T04:15:50.866Z,32.60
2023-02-19T04:16:21.005Z,32.58
2023-02-19T04:16:51.081Z,32.55
2023-02-19T04:17:21.179Z,32.52
2023-02-19T04:17:51.301Z,32.56
2023-02-19T04:18:21.288Z,32.55
2023-02-19T04:18:51.403Z,32.55
2023-02-19T04:19:21.523Z,32.58
2023-02-19T04:19:51.633Z,32.56
2023-02-19T04:20:21.733Z,32.60
2023-02-19T04:20:51.741Z,32.60
2023-02-19T04:21:21.861Z,32.60
2023-02-19T04:21:51.968Z,32.61
2023-02-19T04:22:22.073Z,32.58
2023-02-19T04:22:52.199Z,32.56
2023-02-19T04:23:22.199Z,32.60
2023-02-19T04:23:52.312Z,32.55
2023-02-19T04:24:22.409Z,32.57
2023-02-19T04:24:52.522Z,32.56
2023-02-19T04:25:22.657Z,32.58
2023-02-19T04:25:52.749Z,32.56
2023-02-19T04:26:22.872Z,32.64
2023-02-19T04:26:52.976Z,32.56
2023-02-19T04:27:23.075Z,32.60
2023-02-19T04:27:53.193Z,32.61
2023-02-19T04:28:23.313Z,32.61
2023-02-19T04:28:53.410Z,32.63
2023-02-19T04:29:23.516Z,32.61
2023-02-19T04:29:53.647Z,32.58
2023-02-19T04:30:23.809Z,32.51
2023-02-19T04:30:53.768Z,32.56
2023-02-19T04:31:23.984Z,32.57
2023-02-19T04:31:53.954Z,32.56
2023-02-19T04:32:23.938Z,32.51
2023-02-19T04:32:54.071Z,32.55
2023-02-19T04:33:24.156Z,32.60
2023-02-19T04:33:54.282Z,32.58
2023-02-19T04:34:24.382Z,32.57
2023-02-19T04:34:54.515Z,32.60
2023-02-19T04:35:24.609Z,32.61
2023-02-19T04:35:54.714Z,32.60
2023-02-19T04:36:24.823Z,32.61
2023-02-19T04:36:54.946Z,32.58
2023-02-19T04:37:25.046Z,32.60
2023-02-19T04:37:55.160Z,32.55
2023-02-19T04:38:25.268Z,32.58
2023-02-19T04:38:55.384Z,32.56
2023-02-19T04:39:25.496Z,32.58
2023-02-19T04:39:55.611Z,32.55
2023-02-19T04:40:25.715Z,32.61
2023-02-19T04:40:55.838Z,32.60
2023-02-19T04:41:25.939Z,32.63
2023-02-19T04:41:56.053Z,32.60
2023-02-19T04:42:26.161Z,32.58
2023-02-19T04:42:56.269Z,32.55
2023-02-19T04:43:26.385Z,32.57
2023-02-19T04:43:56.493Z,32.55
2023-02-19T04:44:26.607Z,32.55
2023-02-19T04:44:56.721Z,32.55
2023-02-19T04:45:26.832Z,32.60
2023-02-19T04:45:56.968Z,32.60
2023-02-19T04:46:27.063Z,32.60
2023-02-19T04:46:57.041Z,32.55
2023-02-19T04:47:27.149Z,32.57
2023-02-19T04:47:57.263Z,32.52
2023-02-19T04:48:27.375Z,32.52
2023-02-19T04:48:57.484Z,32.58
2023-02-19T04:49:27.608Z,32.56
2023-02-19T04:49:57.721Z,32.55
2023-02-19T04:50:27.824Z,32.56
2023-02-19T04:50:57.942Z,32.50
2023-02-19T04:51:28.051Z,32.53
2023-02-19T04:51:58.163Z,32.55
2023-02-19T04:52:28.293Z,32.55
2023-02-19T04:52:58.382Z,32.55
2023-02-19T04:53:28.375Z,32.53
2023-02-19T04:53:58.483Z,32.59
2023-02-19T04:54:28.592Z,32.55
2023-02-19T04:54:58.703Z,32.56
2023-02-19T04:55:28.827Z,32.58
2023-02-19T04:55:58.925Z,32.66
2023-02-19T04:56:29.037Z,32.61
2023-02-19T04:56:59.150Z,32.58
2023-02-19T04:57:29.257Z,32.63
2023-02-19T04:57:59.372Z,32.58
2023-02-19T04:58:29.479Z,32.55
2023-02-19T04:58:59.601Z,32.54
2023-02-19T04:59:29.710Z,32.56
2023-02-19T04:59:59.821Z,32.62
2023-02-19T05:00:29.933Z,32.61
2023-02-19T05:01:00.042Z,32.59
2023-02-19T05:01:30.210Z,32.56
2023-02-19T05:02:00.173Z,32.58
2023-02-19T05:02:30.171Z,32.59
2023-02-19T05:03:00.286Z,32.64
2023-02-19T05:03:30.399Z,32.59
2023-02-19T05:04:00.549Z,32.61
2023-02-19T05:04:30.640Z,32.55
2023-02-19T05:05:00.600Z,32.56
2023-02-19T05:05:30.711Z,32.61
2023-02-19T05:06:00.822Z,32.58
2023-02-19T05:06:30.928Z,32.56
2023-02-19T05:07:01.043Z,32.60
2023-02-19T05:07:31.112Z,32.56
2023-02-19T05:08:01.181Z,32.58
2023-02-19T05:08:31.250Z,32.58
2023-02-19T05:09:01.323Z,32.56
2023-02-19T05:09:31.390Z,32.56
2023-02-19T05:10:01.461Z,32.58
2023-02-19T05:10:31.534Z,32.55
2023-02-19T05:11:01.603Z,32.55
2023-02-19T05:11:31.672Z,32.58
2023-02-19T05:12:01.743Z,32.56
2023-02-19T05:12:31.817Z,32.58
2023-02-19T05:13:01.893Z,32.59
2023-02-19T05:13:32.010Z,32.61
2023-02-19T05:14:02.075Z,32.55
2023-02-19T05:14:32.144Z,32.59
2023-02-19T05:15:02.221Z,32.59
2023-02-19T05:15:32.382Z,32.61
2023-02-19T05:16:02.382Z,32.59
2023-02-19T05:16:32.339Z,32.56
2023-02-19T05:17:02.406Z,32.58
2023-02-19T05:17:32.510Z,32.58
2023-02-19T05:18:02.620Z,32.58
2023-02-19T05:18:32.730Z,32.56
2023-02-19T05:19:02.846Z,32.62
2023-02-19T05:19:32.956Z,32.59
2023-02-19T05:20:03.061Z,32.61
2023-02-19T05:20:33.181Z,32.53
2023-02-19T05:21:03.303Z,32.55
2023-02-19T05:21:33.405Z,32.55
2023-02-19T05:22:03.513Z,32.61
2023-02-19T05:22:33.626Z,32.55
2023-02-19T05:23:03.747Z,32.51
2023-02-19T05:23:33.857Z,32.59
2023-02-19T05:24:03.957Z,32.58
2023-02-19T05:24:34.074Z,32.58
2023-02-19T05:25:04.175Z,32.59
2023-02-19T05:25:34.292Z,32.58
2023-02-19T05:26:04.394Z,32.58
2023-02-19T05:26:34.521Z,32.56
2023-02-19T05:27:04.618Z,32.56
2023-02-19T05:27:34.727Z,32.51
2023-02-19T05:28:04.835Z,32.56
2023-02-19T05:28:34.962Z,32.55
2023-02-19T05:29:05.076Z,32.51
2023-02-19T05:29:35.184Z,32.54
2023-02-19T05:30:05.325Z,32.56
2023-02-19T05:30:35.407Z,32.53
2023-02-19T05:31:05.387Z,32.56
2023-02-19T05:31:35.491Z,32.56
2023-02-19T05:32:05.385Z,32.53
2023-02-19T05:32:35.357Z,32.53
2023-02-19T05:33:05.479Z,32.61
2023-02-19T05:33:35.600Z,32.58
2023-02-19T05:34:05.699Z,32.55
2023-02-19T05:34:35.815Z,32.55
2023-02-19T05:35:05.923Z,32.58
2023-02-19T05:35:36.033Z,32.51
2023-02-19T05:36:06.146Z,32.62
2023-02-19T05:36:36.253Z,32.54
2023-02-19T05:37:06.370Z,32.50
2023-02-19T05:37:36.480Z,32.50
2023-02-19T05:38:06.583Z,32.54
2023-02-19T05:38:36.702Z,32.59
2023-02-19T05:39:06.816Z,32.56
2023-02-19T05:39:36.926Z,32.58
2023-02-19T05:40:07.038Z,32.56
2023-02-19T05:40:37.150Z,32.59
2023-02-19T05:41:07.260Z,32.56
2023-02-19T05:41:37.367Z,32.59
2023-02-19T05:42:07.479Z,32.58
2023-02-19T05:42:37.475Z,32.56
2023-02-19T05:43:07.587Z,32.56
2023-02-19T05:43:37.700Z,32.56
2023-02-19T05:44:07.813Z,32.55
2023-02-19T05:44:37.924Z,32.55
2023-02-19T05:45:08.036Z,32.54
2023-02-19T05:45:38.149Z,32.58
2023-02-19T05:46:08.364Z,32.51
2023-02-19T05:46:38.402Z,32.56
2023-02-19T05:47:08.373Z,32.58
2023-02-19T05:47:38.491Z,32.56
2023-02-19T05:48:08.604Z,32.59
2023-02-19T05:48:38.710Z,32.57
2023-02-19T05:49:08.829Z,32.59
2023-02-19T05:49:38.936Z,32.55
2023-02-19T05:50:09.046Z,32.59
2023-02-19T05:50:39.990Z,32.54
2023-02-19T05:51:09.623Z,32.58
2023-02-19T05:51:39.365Z,32.54
2023-02-19T05:52:09.369Z,32.58
2023-02-19T05:52:39.493Z,32.59
2023-02-19T05:53:09.478Z,32.62
2023-02-19T05:53:39.593Z,32.59
2023-02-19T05:54:09.705Z,32.53
2023-02-19T05:54:39.818Z,32.62
2023-02-19T05:55:09.943Z,32.61
2023-02-19T05:55:40.044Z,32.57
2023-02-19T05:56:10.151Z,32.61
2023-02-19T05:56:40.281Z,32.55
2023-02-19T05:57:10.373Z,32.61
2023-02-19T05:57:43.373Z,32.54
2023-02-19T05:58:10.512Z,32.59
2023-02-19T05:58:40.640Z,32.59
2023-02-19T05:59:10.656Z,32.62
2023-02-19T05:59:40.765Z,32.61
2023-02-19T06:00:10.877Z,32.53
2023-02-19T06:00:40.998Z,32.61
2023-02-19T06:01:11.412Z,32.56
2023-02-19T06:01:41.216Z,32.59
2023-02-19T06:02:11.321Z,32.59
2023-02-19T06:02:41.474Z,32.56
2023-02-19T06:03:11.484Z,32.61
2023-02-19T06:03:41.647Z,32.65
2023-02-19T06:04:11.663Z,32.58
2023-02-19T06:04:41.630Z,32.59
2023-02-19T06:05:11.740Z,32.56
2023-02-19T06:05:41.858Z,32.57
2023-02-19T06:06:11.963Z,32.59
2023-02-19T06:06:42.087Z,32.59
2023-02-19T06:07:12.190Z,32.61
2023-02-19T06:07:42.256Z,32.64
2023-02-19T06:08:12.331Z,32.67
2023-02-19T06:09:21.400Z,32.65
2023-02-19T06:09:51.468Z,32.64
2023-02-19T06:10:21.572Z,32.61
2023-02-19T06:10:51.633Z,32.59
2023-02-19T06:11:21.738Z,32.65
2023-02-19T06:11:51.829Z,32.64
2023-02-19T06:12:21.899Z,32.64
2023-02-19T06:12:51.982Z,32.62
2023-02-19T06:13:22.049Z,32.65
2023-02-19T06:13:52.125Z,32.65
2023-02-19T06:14:22.195Z,32.62
2023-02-19T06:14:52.265Z,32.68
2023-02-19T06:15:22.339Z,32.64
2023-02-19T06:15:52.447Z,32.65
2023-02-19T06:16:22.568Z,32.59
2023-02-19T06:16:52.518Z,32.65
2023-02-19T06:17:22.597Z,32.62
2023-02-19T06:17:52.669Z,32.64
2023-02-19T06:18:22.741Z,32.61
2023-02-19T06:18:52.848Z,32.65
2023-02-19T06:19:22.941Z,32.59
2023-02-19T06:19:53.048Z,32.62
2023-02-19T06:20:24.974Z,32.62
2023-02-19T06:20:53.209Z,32.61
2023-02-19T06:21:23.312Z,32.62
2023-02-19T06:21:53.437Z,32.61
2023-02-19T06:22:23.546Z,32.62
2023-02-19T06:22:53.653Z,32.62
2023-02-19T06:23:23.767Z,32.59
2023-02-19T06:23:53.883Z,32.61
2023-02-19T06:24:23.993Z,32.54
2023-02-19T06:24:54.106Z,32.62
2023-02-19T06:25:24.230Z,32.59
2023-02-19T06:25:54.329Z,32.56
2023-02-19T06:26:24.449Z,32.61
2023-02-19T06:26:54.553Z,32.59
2023-02-19T06:27:24.665Z,32.59
2023-02-19T06:27:54.778Z,32.59
2023-02-19T06:28:24.902Z,32.54
2023-02-19T06:28:55.002Z,32.54